Terminal Aerodrome Forecast
Issued by NWS Wilmington, OH

Current Version | Previous Version | Text Only | Print | Product List | Glossary Off
Versions: 1 2 3 4 5 6 7 8 9 10 11 12 13 14 15 16 17 18 19 20 21 22 23 24 25 26 27 28 29 30 31 32 33 34 35 36 37

000
FTUS41 KILN 270000 AAA
TAFCVG
TAF AMD
KCVG 270002Z 2700/2806 15008KT P6SM -SHRA VCTS OVC030CB
      TEMPO 2700/2703 23010G25KT 1SM TSRA OVC025CB
     FM270500 19006KT 4SM BR VCSH OVC012
     FM270900 22010KT 3SM BR VCSH OVC008
     FM271400 28012G20KT P6SM VCSH OVC025
     FM271600 31012G20KT P6SM BKN040=

USA.gov is the U.S. government's official web portal to all federal, state and local government web resources and services.